Time;durP1;ratioP1;P1;durP2;ratioP2;P2;SDS_P1;SDS_P2;PMS_P1;PMS_P2;Temp;Humidity;BMP_temperature;BMP_pressure;BME280_temperature;BME280_humidity;BME280_pressure;Samples;Min_cycle;Max_cycle;Signal;HPM_P1;HPM_P2
2021/12/28 00:01:41;;;;;;;69.43;43.40;;;;;;;;;;5137862;27;20515;-73
2021/12/28 00:04:09;;;;;;;58.53;41.90;;;;;;;;;;5135133;27;20450;-72
2021/12/28 00:06:46;;;;;;;50.10;37.17;;;;;;;;;;5129809;27;20793;-72
2021/12/28 00:09:14;;;;;;;62.13;43.57;;;;;;;;;;5125165;28;20449;-73
2021/12/28 00:11:43;;;;;;;66.00;41.93;;;;;;;;;;5136910;28;20545;-72
2021/12/28 00:14:12;;;;;;;65.63;44.23;;;;;;;;;;5136007;28;20452;-72
2021/12/28 00:19:30;;;;;;;73.23;45.53;;;;;;;;;;5135361;28;20417;-73
2021/12/28 00:21:58;;;;;;;63.50;43.73;;;;;;;;;;5129821;28;20460;-72
2021/12/28 00:24:26;;;;;;;70.73;45.40;;;;;;;;;;5136909;28;20872;-72
2021/12/28 00:26:57;;;;;;;57.83;42.30;;;;;;;;;;5129970;28;20447;-72
2021/12/28 00:29:26;;;;;;;55.93;41.10;;;;;;;;;;5117100;28;20480;-72
2021/12/28 00:31:53;;;;;;;56.10;41.87;;;;;;;;;;5123292;28;20825;-72
2021/12/28 00:34:21;;;;;;;57.33;41.43;;;;;;;;;;5137151;28;20846;-72
2021/12/28 00:36:49;;;;;;;49.53;35.80;;;;;;;;;;5133616;28;20914;-72
2021/12/28 00:39:19;;;;;;;59.17;43.37;;;;;;;;;;5123420;28;20453;-72
2021/12/28 00:41:47;;;;;;;52.83;36.10;;;;;;;;;;5136621;28;20464;-72
2021/12/28 00:44:15;;;;;;;56.43;40.70;;;;;;;;;;5137260;28;20565;-72
2021/12/28 00:46:44;;;;;;;63.77;41.90;;;;;;;;;;5131972;28;20478;-72
2021/12/28 00:49:12;;;;;;;50.63;37.50;;;;;;;;;;5133534;28;20846;-71
2021/12/28 00:51:39;;;;;;;59.73;40.40;;;;;;;;;;5134767;27;20462;-72
2021/12/28 00:54:07;;;;;;;52.63;38.40;;;;;;;;;;5137032;28;20450;-73
2021/12/28 00:56:35;;;;;;;56.83;41.20;;;;;;;;;;5137360;28;20935;-72
2021/12/28 00:59:03;;;;;;;57.53;41.70;;;;;;;;;;5136677;28;20783;-72
2021/12/28 01:01:33;;;;;;;54.90;40.53;;;;;;;;;;5126113;28;20572;-72
2021/12/28 01:04:02;;;;;;;63.83;43.33;;;;;;;;;;5136491;28;20450;-72
2021/12/28 01:06:33;;;;;;;53.30;37.23;;;;;;;;;;5119324;28;20450;-73
2021/12/28 01:09:02;;;;;;;59.40;40.23;;;;;;;;;;5106482;27;20501;-73
2021/12/28 01:11:30;;;;;;;59.23;40.00;;;;;;;;;;5140440;27;20453;-72
2021/12/28 01:13:58;;;;;;;50.53;39.00;;;;;;;;;;5140324;27;20450;-72
2021/12/28 01:16:26;;;;;;;55.30;40.17;;;;;;;;;;5140318;27;20488;-72
2021/12/28 01:18:54;;;;;;;61.00;40.30;;;;;;;;;;5140836;27;20503;-72
2021/12/28 01:21:27;;;;;;;54.80;38.73;;;;;;;;;;5140088;27;20480;-72
2021/12/28 01:23:55;;;;;;;56.83;40.10;;;;;;;;;;5140277;27;20877;-72
2021/12/28 01:26:22;;;;;;;52.07;36.30;;;;;;;;;;5140305;27;20810;-73
2021/12/28 01:28:50;;;;;;;55.20;39.40;;;;;;;;;;5120138;28;20827;-72
2021/12/28 01:31:19;;;;;;;54.17;40.23;;;;;;;;;;5120646;28;20545;-73
2021/12/28 01:33:46;;;;;;;69.07;42.67;;;;;;;;;;5137652;27;20481;-72
2021/12/28 01:36:14;;;;;;;55.40;39.97;;;;;;;;;;5139994;27;20754;-72
2021/12/28 01:38:49;;;;;;;56.23;40.40;;;;;;;;;;5140536;27;20453;-72
2021/12/28 01:41:20;;;;;;;58.87;41.40;;;;;;;;;;5141206;27;20446;-72
2021/12/28 01:43:48;;;;;;;50.00;38.10;;;;;;;;;;5139982;27;20949;-72
2021/12/28 01:46:16;;;;;;;54.17;39.10;;;;;;;;;;5139731;27;20460;-72
2021/12/28 01:48:51;;;;;;;62.73;43.27;;;;;;;;;;5139135;27;20553;-73
2021/12/28 01:51:35;;;;;;;55.43;37.20;;;;;;;;;;5131478;27;20462;-71
2021/12/28 01:54:12;;;;;;;54.97;39.00;;;;;;;;;;5119458;27;20470;-71
2021/12/28 01:57:13;;;;;;;;;;;;;;;;;;;;;
2021/12/28 01:59:42;;;;;;;48.33;36.83;;;;;;;;;;5113771;28;20456;-72
2021/12/28 02:02:10;;;;;;;57.40;41.70;;;;;;;;;;5119349;28;20442;-73
2021/12/28 02:04:40;;;;;;;53.40;37.60;;;;;;;;;;5119699;28;20459;-73
2021/12/28 02:07:11;;;;;;;53.30;40.13;;;;;;;;;;5119755;28;20507;-72
2021/12/28 02:09:40;;;;;;;63.00;41.33;;;;;;;;;;5120023;28;20484;-72
2021/12/28 02:12:10;;;;;;;57.97;42.03;;;;;;;;;;5123134;27;20880;-70
2021/12/28 02:14:44;;;;;;;59.93;42.43;;;;;;;;;;5139817;27;20518;-73
2021/12/28 02:17:15;;;;;;;65.40;43.90;;;;;;;;;;5140990;27;20482;-72
2021/12/28 02:19:51;;;;;;;49.63;36.60;;;;;;;;;;5138930;27;20449;-72
2021/12/28 02:22:29;;;;;;;59.57;42.37;;;;;;;;;;5140345;27;20442;-72
2021/12/28 02:25:00;;;;;;;47.93;35.53;;;;;;;;;;5140618;27;20560;-72
2021/12/28 02:27:31;;;;;;;47.77;38.37;;;;;;;;;;5139972;27;20469;-71
2021/12/28 02:29:59;;;;;;;49.47;36.00;;;;;;;;;;5138520;27;20783;-72
2021/12/28 02:32:30;;;;;;;55.60;42.50;;;;;;;;;;5119771;28;20823;-73
2021/12/28 02:34:58;;;;;;;63.23;42.47;;;;;;;;;;5120409;28;20500;-72
2021/12/28 02:37:28;;;;;;;57.43;40.00;;;;;;;;;;5118880;28;20487;-72
2021/12/28 02:39:56;;;;;;;60.83;40.90;;;;;;;;;;5118831;28;20477;-73
2021/12/28 02:42:25;;;;;;;64.07;43.27;;;;;;;;;;5118942;28;20862;-72
2021/12/28 02:45:00;;;;;;;69.77;44.60;;;;;;;;;;5119444;28;20533;-72
2021/12/28 02:47:28;;;;;;;51.10;38.60;;;;;;;;;;5118817;28;20449;-72
2021/12/28 02:49:58;;;;;;;60.20;43.37;;;;;;;;;;5118958;28;20725;-72
2021/12/28 02:52:31;;;;;;;58.70;40.50;;;;;;;;;;5136934;27;20449;-72
2021/12/28 02:55:08;;;;;;;57.97;40.37;;;;;;;;;;5139346;27;20532;-72
2021/12/28 02:57:36;;;;;;;60.03;42.30;;;;;;;;;;5138749;27;20734;-72
2021/12/28 03:00:12;;;;;;;61.07;43.60;;;;;;;;;;5138719;27;20464;-73
2021/12/28 03:02:44;;;;;;;66.13;41.67;;;;;;;;;;5138507;27;20727;-73
2021/12/28 03:05:23;;;;;;;54.30;39.77;;;;;;;;;;5138586;27;20457;-72
2021/12/28 03:07:53;;;;;;;75.40;46.37;;;;;;;;;;5138698;27;20438;-72
2021/12/28 03:10:24;;;;;;;69.33;44.30;;;;;;;;;;5138489;27;20468;-72
2021/12/28 03:12:51;;;;;;;65.10;42.73;;;;;;;;;;5118463;28;20442;-72
2021/12/28 03:15:19;;;;;;;62.67;40.73;;;;;;;;;;5118399;28;20858;-73
2021/12/28 03:17:47;;;;;;;60.80;41.47;;;;;;;;;;5118232;27;20482;-72
2021/12/28 03:20:39;;;;;;;58.97;41.57;;;;;;;;;;5138911;27;20457;-72
2021/12/28 03:23:09;;;;;;;56.67;38.20;;;;;;;;;;5139085;27;20841;-73
2021/12/28 03:25:37;;;;;;;60.90;41.43;;;;;;;;;;5138076;27;20458;-72
2021/12/28 03:28:04;;;;;;;54.30;37.90;;;;;;;;;;5138082;27;20830;-72
2021/12/28 03:30:32;;;;;;;65.77;46.33;;;;;;;;;;5131945;27;20512;-72
2021/12/28 03:33:00;;;;;;;63.53;44.13;;;;;;;;;;5122750;27;20463;-72
2021/12/28 03:35:30;;;;;;;65.63;40.33;;;;;;;;;;5125289;27;20528;-72
2021/12/28 03:38:00;;;;;;;58.77;41.80;;;;;;;;;;5130971;27;20539;-72
2021/12/28 03:40:29;;;;;;;52.03;39.83;;;;;;;;;;5117905;28;20533;-72
2021/12/28 03:42:57;;;;;;;58.07;39.50;;;;;;;;;;5117079;28;20454;-72
2021/12/28 03:45:28;;;;;;;55.40;40.77;;;;;;;;;;5134430;27;20703;-73
2021/12/28 03:47:55;;;;;;;67.03;42.50;;;;;;;;;;5137721;27;20533;-73
2021/12/28 03:50:25;;;;;;;70.57;45.23;;;;;;;;;;5121769;27;20489;-73
2021/12/28 03:52:56;;;;;;;59.90;40.93;;;;;;;;;;5138205;27;20450;-72
2021/12/28 03:55:24;;;;;;;59.57;43.33;;;;;;;;;;5137061;27;20461;-73
2021/12/28 03:57:59;;;;;;;54.27;39.73;;;;;;;;;;5137152;27;20488;-73
2021/12/28 04:00:28;;;;;;;64.50;43.13;;;;;;;;;;5124864;27;20461;-73
2021/12/28 04:02:56;;;;;;;64.93;43.47;;;;;;;;;;5129329;27;20481;-73
2021/12/28 04:05:23;;;;;;;63.53;42.33;;;;;;;;;;5117558;28;20899;-72
2021/12/28 04:07:51;;;;;;;63.27;44.03;;;;;;;;;;5117906;28;20488;-72
2021/12/28 04:10:28;;;;;;;66.63;43.20;;;;;;;;;;5117623;28;20502;-72
2021/12/28 04:12:57;;;;;;;59.27;40.10;;;;;;;;;;5128921;28;20819;-72
2021/12/28 04:15:25;;;;;;;61.67;40.47;;;;;;;;;;5119136;28;20851;-72
2021/12/28 04:17:53;;;;;;;65.73;44.13;;;;;;;;;;5133306;28;20921;-72
2021/12/28 04:20:22;;;;;;;57.53;39.73;;;;;;;;;;5136832;28;20469;-72
2021/12/28 04:22:50;;;;;;;54.10;41.30;;;;;;;;;;5137387;28;20864;-72
2021/12/28 04:25:19;;;;;;;59.37;41.93;;;;;;;;;;5137964;28;20475;-73
2021/12/28 04:27:52;;;;;;;69.47;42.93;;;;;;;;;;5129180;28;20481;-72
2021/12/28 04:30:22;;;;;;;59.17;40.03;;;;;;;;;;5137373;28;20446;-72
2021/12/28 04:32:49;;;;;;;45.23;34.60;;;;;;;;;;5120861;28;20501;-72
2021/12/28 04:35:17;;;;;;;61.23;41.53;;;;;;;;;;5119381;28;20455;-72
2021/12/28 04:37:45;;;;;;;61.40;40.83;;;;;;;;;;5137012;28;20482;-72
2021/12/28 04:40:13;;;;;;;58.57;40.80;;;;;;;;;;5137778;28;20445;-72
2021/12/28 04:42:41;;;;;;;66.40;43.20;;;;;;;;;;5138241;27;20526;-72
2021/12/28 04:45:10;;;;;;;51.90;36.80;;;;;;;;;;5141938;27;20468;-72
2021/12/28 04:47:40;;;;;;;69.60;43.93;;;;;;;;;;5141409;27;20698;-72
2021/12/28 04:50:08;;;;;;;63.40;39.40;;;;;;;;;;5141596;27;20576;-72
2021/12/28 04:52:38;;;;;;;58.00;40.27;;;;;;;;;;5141020;27;20450;-72
2021/12/28 04:55:06;;;;;;;63.80;42.50;;;;;;;;;;5141675;27;20678;-72
2021/12/28 04:57:34;;;;;;;69.57;43.73;;;;;;;;;;5141260;27;20504;-72
2021/12/28 05:00:01;;;;;;;63.67;42.57;;;;;;;;;;5141186;27;20460;-72
2021/12/28 05:02:30;;;;;;;67.70;47.50;;;;;;;;;;5141020;27;20533;-72
2021/12/28 05:04:59;;;;;;;70.50;44.40;;;;;;;;;;5140618;27;20539;-72
2021/12/28 05:07:26;;;;;;;63.77;42.70;;;;;;;;;;5141727;27;20441;-73
2021/12/28 05:09:57;;;;;;;66.33;41.57;;;;;;;;;;5141293;27;20465;-72
2021/12/28 05:12:25;;;;;;;56.27;39.10;;;;;;;;;;5140555;27;20522;-73
2021/12/28 05:14:53;;;;;;;60.53;41.53;;;;;;;;;;5141428;27;20486;-72
2021/12/28 05:17:20;;;;;;;61.20;43.40;;;;;;;;;;5140437;27;20481;-72
2021/12/28 05:19:55;;;;;;;58.30;41.07;;;;;;;;;;5126997;27;20465;-72
2021/12/28 05:22:25;;;;;;;63.67;44.97;;;;;;;;;;5120575;28;20816;-72
2021/12/28 05:24:52;;;;;;;61.23;43.00;;;;;;;;;;5120170;28;20451;-72
2021/12/28 05:27:23;;;;;;;64.93;43.17;;;;;;;;;;5119629;28;20439;-71
2021/12/28 05:29:51;;;;;;;55.03;38.70;;;;;;;;;;5121183;27;20783;-72
2021/12/28 05:32:18;;;;;;;53.83;38.00;;;;;;;;;;5125143;27;20533;-72
2021/12/28 05:34:46;;;;;;;54.20;39.73;;;;;;;;;;5120187;28;20497;-72
2021/12/28 05:37:14;;;;;;;64.83;44.33;;;;;;;;;;5119804;28;20474;-72
2021/12/28 05:39:43;;;;;;;60.47;39.90;;;;;;;;;;5136343;27;20458;-73
2021/12/28 05:42:13;;;;;;;66.17;45.23;;;;;;;;;;5140346;27;20454;-72
2021/12/28 05:44:42;;;;;;;65.67;41.70;;;;;;;;;;5140689;27;20469;-73
2021/12/28 05:47:12;;;;;;;61.50;42.70;;;;;;;;;;5140585;27;20434;-73
2021/12/28 05:49:41;;;;;;;67.23;42.70;;;;;;;;;;5140826;27;20465;-72
2021/12/28 05:52:08;;;;;;;60.97;43.00;;;;;;;;;;5139670;27;20919;-72
2021/12/28 05:54:36;;;;;;;59.47;43.00;;;;;;;;;;5140388;27;20454;-73
2021/12/28 05:57:07;;;;;;;68.07;43.10;;;;;;;;;;5139560;27;20477;-73
2021/12/28 05:59:35;;;;;;;67.87;47.17;;;;;;;;;;5139655;27;20783;-71
2021/12/28 06:02:06;;;;;;;62.57;44.80;;;;;;;;;;5139977;27;20675;-72
2021/12/28 06:04:48;;;;;;;60.43;41.47;;;;;;;;;;5139427;27;20491;-73
2021/12/28 06:07:15;;;;;;;64.10;43.93;;;;;;;;;;5139367;27;20449;-72
2021/12/28 06:09:43;;;;;;;54.53;39.47;;;;;;;;;;5139232;27;20521;-72
2021/12/28 06:12:13;;;;;;;61.10;42.43;;;;;;;;;;5139175;27;20450;-72
2021/12/28 06:14:41;;;;;;;60.20;42.13;;;;;;;;;;5138749;27;20446;-72
2021/12/28 06:17:08;;;;;;;55.93;39.93;;;;;;;;;;5138731;27;20512;-72
2021/12/28 06:19:36;;;;;;;61.17;41.47;;;;;;;;;;5137812;27;20461;-72
2021/12/28 06:22:04;;;;;;;68.10;43.03;;;;;;;;;;5139197;27;20450;-72
2021/12/28 06:24:32;;;;;;;60.23;42.53;;;;;;;;;;5138854;27;20794;-72
2021/12/28 06:27:00;;;;;;;60.00;43.77;;;;;;;;;;5138610;27;20544;-71
2021/12/28 06:29:32;;;;;;;66.30;41.43;;;;;;;;;;5138916;27;20457;-72
2021/12/28 06:32:07;;;;;;;58.80;42.83;;;;;;;;;;5139004;27;20446;-72
2021/12/28 06:34:38;;;;;;;56.70;41.10;;;;;;;;;;5138868;27;20461;-72
2021/12/28 06:37:06;;;;;;;51.27;40.43;;;;;;;;;;5139380;27;20521;-72
2021/12/28 06:39:34;;;;;;;60.90;44.33;;;;;;;;;;5138383;27;20453;-73
2021/12/28 06:42:02;;;;;;;60.93;40.83;;;;;;;;;;5138191;27;20455;-72
2021/12/28 06:44:31;;;;;;;58.63;41.57;;;;;;;;;;5138723;27;20570;-72
2021/12/28 06:46:58;;;;;;;62.77;43.40;;;;;;;;;;5138301;27;20462;-73
2021/12/28 06:49:26;;;;;;;54.60;41.40;;;;;;;;;;5138469;27;20540;-72
2021/12/28 06:51:54;;;;;;;52.87;40.10;;;;;;;;;;5138536;27;20469;-72
2021/12/28 06:54:22;;;;;;;61.97;42.30;;;;;;;;;;5138386;27;20454;-72
2021/12/28 06:56:49;;;;;;;63.23;45.10;;;;;;;;;;5138897;27;20474;-72
2021/12/28 06:59:21;;;;;;;57.27;39.93;;;;;;;;;;5137990;27;20977;-72
2021/12/28 07:01:50;;;;;;;62.30;42.73;;;;;;;;;;5133980;27;20481;-72
2021/12/28 07:04:18;;;;;;;62.57;45.00;;;;;;;;;;5139371;27;20461;-72
2021/12/28 07:06:46;;;;;;;51.80;41.33;;;;;;;;;;5137636;27;20511;-72
2021/12/28 07:09:14;;;;;;;59.30;42.03;;;;;;;;;;5136070;27;20492;-72
2021/12/28 07:11:41;;;;;;;61.10;44.47;;;;;;;;;;5135698;27;20763;-72
2021/12/28 07:14:09;;;;;;;61.87;41.73;;;;;;;;;;5136707;27;20955;-72
2021/12/28 07:16:37;;;;;;;57.77;41.90;;;;;;;;;;5138409;27;20442;-72
2021/12/28 07:19:10;;;;;;;57.93;40.93;;;;;;;;;;5131301;27;20586;-72
2021/12/28 07:21:38;;;;;;;63.27;42.73;;;;;;;;;;5129583;27;20474;-72
2021/12/28 07:24:06;;;;;;;70.47;48.00;;;;;;;;;;5135908;27;20464;-73
2021/12/28 07:26:34;;;;;;;64.57;46.00;;;;;;;;;;5128774;27;20442;-73
2021/12/28 07:29:02;;;;;;;60.50;44.27;;;;;;;;;;5136990;27;20514;-72
2021/12/28 07:31:30;;;;;;;59.17;39.20;;;;;;;;;;5133917;27;20456;-73
2021/12/28 07:33:58;;;;;;;60.97;44.20;;;;;;;;;;5135439;27;20756;-72
2021/12/28 07:36:29;;;;;;;64.20;42.90;;;;;;;;;;5126164;27;20492;-72
2021/12/28 07:38:59;;;;;;;53.03;37.47;;;;;;;;;;5137721;27;20570;-72
2021/12/28 07:41:28;;;;;;;68.73;46.53;;;;;;;;;;5138147;27;20561;-74
2021/12/28 07:43:55;;;;;;;55.43;40.27;;;;;;;;;;5138063;27;20445;-72
2021/12/28 07:46:23;;;;;;;70.07;46.37;;;;;;;;;;5133721;27;20519;-74
2021/12/28 07:48:51;;;;;;;65.60;44.43;;;;;;;;;;5122413;27;20859;-73
2021/12/28 07:51:19;;;;;;;70.67;46.60;;;;;;;;;;5137676;27;20475;-72
2021/12/28 07:53:50;;;;;;;71.40;45.07;;;;;;;;;;5137471;27;20733;-73
2021/12/28 07:56:17;;;;;;;70.73;47.17;;;;;;;;;;5137776;27;20783;-72
2021/12/28 07:58:46;;;;;;;68.83;47.80;;;;;;;;;;5136866;27;20473;-74
2021/12/28 08:01:14;;;;;;;63.17;45.93;;;;;;;;;;5137981;27;20521;-73
2021/12/28 08:03:42;;;;;;;58.70;43.27;;;;;;;;;;5138608;27;20515;-72
2021/12/28 08:06:10;;;;;;;64.00;47.33;;;;;;;;;;5136988;27;20450;-72
2021/12/28 08:08:38;;;;;;;66.27;46.33;;;;;;;;;;5138059;27;20452;-73
2021/12/28 08:11:07;;;;;;;68.47;45.60;;;;;;;;;;5137200;27;20550;-72
2021/12/28 08:13:35;;;;;;;62.90;44.80;;;;;;;;;;5137990;28;20631;-72
2021/12/28 08:16:03;;;;;;;73.90;45.23;;;;;;;;;;5137261;28;20453;-73
2021/12/28 08:18:30;;;;;;;66.57;46.83;;;;;;;;;;5139259;27;20516;-74
2021/12/28 08:20:58;;;;;;;71.07;47.30;;;;;;;;;;5141592;27;20461;-71
2021/12/28 08:23:26;;;;;;;79.80;47.87;;;;;;;;;;5141332;27;20446;-73
2021/12/28 08:25:53;;;;;;;81.73;49.40;;;;;;;;;;5142305;27;20779;-72
2021/12/28 08:28:23;;;;;;;74.43;50.60;;;;;;;;;;5142178;27;20518;-72
2021/12/28 08:30:51;;;;;;;74.30;50.30;;;;;;;;;;5141332;27;20465;-72
2021/12/28 08:33:19;;;;;;;71.13;48.23;;;;;;;;;;5142013;27;20578;-72
2021/12/28 08:35:52;;;;;;;74.70;50.80;;;;;;;;;;5141112;27;20453;-72
2021/12/28 08:38:20;;;;;;;79.83;49.70;;;;;;;;;;5139991;27;20481;-72
2021/12/28 08:40:48;;;;;;;74.87;49.37;;;;;;;;;;5140209;27;22111;-72
2021/12/28 08:43:16;;;;;;;78.17;51.80;;;;;;;;;;5139804;27;20552;-72
2021/12/28 08:45:45;;;;;;;72.27;50.30;;;;;;;;;;5141645;27;20739;-71
2021/12/28 08:48:13;;;;;;;73.90;49.27;;;;;;;;;;5141378;27;20471;-72
2021/12/28 08:50:42;;;;;;;73.30;52.57;;;;;;;;;;5140267;27;20454;-71
2021/12/28 08:53:12;;;;;;;78.00;48.97;;;;;;;;;;5140231;27;20452;-71
2021/12/28 08:55:42;;;;;;;82.03;53.90;;;;;;;;;;5139726;27;20482;-72
2021/12/28 08:58:11;;;;;;;76.00;51.40;;;;;;;;;;5141470;27;20552;-70
2021/12/28 09:00:51;;;;;;;73.47;48.10;;;;;;;;;;5141380;27;20464;-71
2021/12/28 09:03:36;;;;;;;74.40;46.77;;;;;;;;;;5141244;27;20561;-72
2021/12/28 09:06:07;;;;;;;75.63;51.47;;;;;;;;;;5140778;27;20457;-72
2021/12/28 09:08:37;;;;;;;86.10;52.07;;;;;;;;;;5140778;27;20454;-72
2021/12/28 09:11:05;;;;;;;78.70;50.70;;;;;;;;;;5141012;27;20556;-72
2021/12/28 09:13:37;;;;;;;69.97;49.23;;;;;;;;;;5140251;27;20453;-72
2021/12/28 09:16:04;;;;;;;68.00;44.83;;;;;;;;;;5139890;27;20465;-72
2021/12/28 09:18:36;;;;;;;69.60;50.40;;;;;;;;;;5139517;27;20938;-71
2021/12/28 09:21:03;;;;;;;76.57;47.87;;;;;;;;;;5138792;27;20461;-72
2021/12/28 09:23:33;;;;;;;70.40;47.83;;;;;;;;;;5139250;27;20837;-72
2021/12/28 09:26:00;;;;;;;73.97;50.10;;;;;;;;;;5139734;27;20502;-72
2021/12/28 09:28:28;;;;;;;71.93;47.20;;;;;;;;;;5138844;27;20442;-73
2021/12/28 09:30:56;;;;;;;72.43;47.80;;;;;;;;;;5139006;27;20462;-72
2021/12/28 09:33:26;;;;;;;72.17;44.03;;;;;;;;;;5140981;27;20827;-72
2021/12/28 09:35:54;;;;;;;77.73;50.90;;;;;;;;;;5138916;27;20736;-72
2021/12/28 09:38:23;;;;;;;80.87;52.03;;;;;;;;;;5139162;27;20470;-72
2021/12/28 09:40:52;;;;;;;70.57;47.07;;;;;;;;;;5140324;27;20518;-72
2021/12/28 09:43:19;;;;;;;80.63;50.47;;;;;;;;;;5136460;27;20450;-72
2021/12/28 09:45:48;;;;;;;78.70;49.23;;;;;;;;;;5139021;27;20461;-72
2021/12/28 09:48:16;;;;;;;73.47;49.07;;;;;;;;;;5134332;27;20449;-72
2021/12/28 09:50:44;;;;;;;76.30;47.87;;;;;;;;;;5138506;27;20458;-72
2021/12/28 09:53:13;;;;;;;79.97;48.40;;;;;;;;;;5138574;27;20489;-72
2021/12/28 09:55:41;;;;;;;83.00;54.63;;;;;;;;;;5132438;27;20534;-72
2021/12/28 09:58:10;;;;;;;85.00;55.27;;;;;;;;;;5137986;27;20453;-72
2021/12/28 10:00:41;;;;;;;78.73;50.80;;;;;;;;;;5134013;27;20549;-73
2021/12/28 10:03:09;;;;;;;88.53;54.50;;;;;;;;;;5128531;27;20831;-72
2021/12/28 10:05:37;;;;;;;84.10;52.40;;;;;;;;;;5125503;27;20493;-72
2021/12/28 10:08:10;;;;;;;84.97;56.37;;;;;;;;;;5131235;27;20438;-72
2021/12/28 10:10:39;;;;;;;80.20;51.87;;;;;;;;;;5136880;27;20481;-72
2021/12/28 10:13:08;;;;;;;77.57;49.97;;;;;;;;;;5137057;27;20478;-72
2021/12/28 10:15:46;;;;;;;70.77;46.07;;;;;;;;;;5121592;27;20457;-72
2021/12/28 10:18:16;;;;;;;71.33;49.10;;;;;;;;;;5121481;27;20482;-72
2021/12/28 10:20:50;;;;;;;75.80;51.67;;;;;;;;;;5135196;27;20920;-73
2021/12/28 10:23:20;;;;;;;76.20;51.00;;;;;;;;;;5127215;27;20465;-72
2021/12/28 10:25:49;;;;;;;75.07;52.37;;;;;;;;;;5125802;27;20477;-72
2021/12/28 10:28:41;;;;;;;75.37;50.20;;;;;;;;;;5124563;27;20458;-72
2021/12/28 10:31:14;;;;;;;71.57;49.80;;;;;;;;;;5125897;27;20453;-72
2021/12/28 10:33:45;;;;;;;84.60;55.13;;;;;;;;;;5138666;27;20461;-73
2021/12/28 10:36:37;;;;;;;78.50;52.60;;;;;;;;;;5133038;27;20525;-72
2021/12/28 10:39:08;;;;;;;79.13;54.67;;;;;;;;;;5137742;27;20488;-71
2021/12/28 10:41:43;;;;;;;73.13;50.30;;;;;;;;;;5129102;27;20457;-71
2021/12/28 10:44:13;;;;;;;72.50;52.67;;;;;;;;;;5134259;27;20526;-71
2021/12/28 10:46:44;;;;;;;76.33;53.27;;;;;;;;;;5137988;27;20518;-73
2021/12/28 10:49:12;;;;;;;78.37;53.87;;;;;;;;;;5137572;27;20549;-72
2021/12/28 10:51:43;;;;;;;86.07;58.33;;;;;;;;;;5137365;27;20449;-72
2021/12/28 10:54:26;;;;;;;92.27;59.80;;;;;;;;;;5130143;27;20767;-71
2021/12/28 10:57:01;;;;;;;91.37;55.13;;;;;;;;;;5128399;27;20812;-72
2021/12/28 10:59:31;;;;;;;81.93;57.67;;;;;;;;;;5132674;27;20474;-72
2021/12/28 11:02:02;;;;;;;82.40;61.83;;;;;;;;;;5131850;27;20746;-72
2021/12/28 11:04:32;;;;;;;89.50;54.70;;;;;;;;;;5135775;27;20458;-72
2021/12/28 11:07:05;;;;;;;73.13;52.47;;;;;;;;;;5138835;27;20448;-72
2021/12/28 11:09:36;;;;;;;84.70;55.20;;;;;;;;;;5118242;27;20443;-71
2021/12/28 11:12:13;;;;;;;87.57;58.30;;;;;;;;;;5121736;27;21716;-71
2021/12/28 11:14:41;;;;;;;84.70;54.67;;;;;;;;;;5136877;27;20534;-71
2021/12/28 11:17:12;;;;;;;80.20;57.40;;;;;;;;;;5137157;27;20529;-70
2021/12/28 11:19:43;;;;;;;74.47;53.00;;;;;;;;;;5135561;27;20477;-72
2021/12/28 11:22:13;;;;;;;77.47;53.93;;;;;;;;;;5137722;27;20873;-72
2021/12/28 11:24:44;;;;;;;87.73;56.23;;;;;;;;;;5123566;27;20455;-72
2021/12/28 11:27:21;;;;;;;81.00;56.23;;;;;;;;;;5135249;27;20793;-72
2021/12/28 11:29:51;;;;;;;92.10;64.20;;;;;;;;;;5116938;28;20519;-73
2021/12/28 11:32:22;;;;;;;80.53;55.37;;;;;;;;;;5128683;27;20865;-72
2021/12/28 11:34:52;;;;;;;87.27;57.07;;;;;;;;;;5134439;27;20856;-71
2021/12/28 11:37:28;;;;;;;85.03;59.23;;;;;;;;;;5132927;27;20446;-71
2021/12/28 11:40:01;;;;;;;89.40;58.73;;;;;;;;;;5130989;27;20844;-72
2021/12/28 11:42:34;;;;;;;90.33;58.37;;;;;;;;;;5134990;27;20537;-71
2021/12/28 11:45:03;;;;;;;96.33;62.30;;;;;;;;;;5133357;27;20731;-71
2021/12/28 11:47:33;;;;;;;82.40;56.80;;;;;;;;;;5136015;27;20450;-71
2021/12/28 11:50:04;;;;;;;91.47;59.13;;;;;;;;;;5137632;27;20454;-71
2021/12/28 11:52:33;;;;;;;81.00;56.93;;;;;;;;;;5137717;27;20994;-71
2021/12/28 11:55:09;;;;;;;91.27;59.87;;;;;;;;;;5131909;27;20454;-71
2021/12/28 11:57:53;;;;;;;92.00;64.40;;;;;;;;;;5121993;27;20889;-72
2021/12/28 12:00:25;;;;;;;84.43;56.00;;;;;;;;;;5121502;27;20576;-71
2021/12/28 12:03:06;;;;;;;78.80;54.70;;;;;;;;;;5134172;27;20443;-72
2021/12/28 12:05:35;;;;;;;85.87;52.90;;;;;;;;;;5116753;28;20450;-71
2021/12/28 12:08:11;;;;;;;88.37;55.00;;;;;;;;;;5131257;27;20532;-71
2021/12/28 12:10:42;;;;;;;84.73;55.90;;;;;;;;;;5132131;27;20465;-71
2021/12/28 12:13:27;;;;;;;81.80;54.40;;;;;;;;;;5130065;27;20564;-71
2021/12/28 12:15:57;;;;;;;78.10;53.20;;;;;;;;;;5141009;27;20867;-72
2021/12/28 12:18:29;;;;;;;78.43;54.30;;;;;;;;;;5137720;27;20461;-72
2021/12/28 12:21:01;;;;;;;82.57;53.70;;;;;;;;;;5151719;27;20576;-72
2021/12/28 12:23:31;;;;;;;86.93;57.33;;;;;;;;;;5137260;27;20443;-72
2021/12/28 12:26:01;;;;;;;78.80;57.93;;;;;;;;;;5135851;28;20472;-72
2021/12/28 12:28:37;;;;;;;86.30;59.33;;;;;;;;;;5116907;28;20554;-72
2021/12/28 12:31:19;;;;;;;82.43;56.27;;;;;;;;;;5128104;28;20880;-72
2021/12/28 12:33:48;;;;;;;87.77;60.67;;;;;;;;;;5117550;28;20473;-73
2021/12/28 12:36:23;;;;;;;84.23;58.70;;;;;;;;;;5114964;28;20969;-73
2021/12/28 12:38:53;;;;;;;86.93;56.67;;;;;;;;;;5125609;28;20507;-73
2021/12/28 12:41:22;;;;;;;81.80;55.20;;;;;;;;;;5122543;28;20450;-73
2021/12/28 12:43:58;;;;;;;79.83;54.43;;;;;;;;;;5128062;28;20525;-73
2021/12/28 12:46:46;;;;;;;85.33;66.57;;;;;;;;;;5130324;28;20987;-73
2021/12/28 12:49:20;;;;;;;92.13;59.73;;;;;;;;;;5126696;28;20516;-75
2021/12/28 12:51:53;;;;;;;78.27;53.60;;;;;;;;;;5125512;28;20477;-71
2021/12/28 12:54:28;;;;;;;76.07;57.93;;;;;;;;;;5120622;28;20525;-73
2021/12/28 12:57:13;;;;;;;73.87;51.27;;;;;;;;;;5131138;28;20450;-73
2021/12/28 12:59:43;;;;;;;85.40;54.27;;;;;;;;;;5136137;28;20526;-73
2021/12/28 13:02:18;;;;;;;77.30;50.53;;;;;;;;;;5137200;28;20449;-73
2021/12/28 13:05:11;;;;;;;85.00;60.43;;;;;;;;;;5137907;27;20714;-73
2021/12/28 13:07:42;;;;;;;80.80;53.50;;;;;;;;;;5137685;27;20457;-73
2021/12/28 13:10:33;;;;;;;63.70;48.30;;;;;;;;;;5139934;27;20446;-73
2021/12/28 13:16:54;;;;;;;79.93;53.03;;;;;;;;;;4996614;28;20453;-72
2021/12/28 13:25:42;;;;;;;62.83;51.37;;;;;;;;;;5115509;27;20450;-73
2021/12/28 13:28:29;;;;;;;82.37;52.93;;;;;;;;;;5126396;27;20509;-72
2021/12/28 13:31:00;;;;;;;88.23;55.40;;;;;;;;;;5127677;27;20453;-72
2021/12/28 13:33:29;;;;;;;71.03;50.07;;;;;;;;;;5122846;27;20538;-73
2021/12/28 13:35:57;;;;;;;114.03;52.50;;;;;;;;;;5135735;27;20541;-73
2021/12/28 13:38:28;;;;;;;69.20;53.60;;;;;;;;;;5139386;27;20450;-73
2021/12/28 13:41:03;;;;;;;76.40;53.03;;;;;;;;;;5138645;27;20496;-73
2021/12/28 13:43:35;;;;;;;79.03;55.53;;;;;;;;;;5138028;27;20464;-72
2021/12/28 13:46:15;;;;;;;80.90;50.40;;;;;;;;;;5137510;27;20450;-73
2021/12/28 13:48:54;;;;;;;85.77;56.77;;;;;;;;;;5137864;27;20465;-73
2021/12/28 13:51:26;;;;;;;79.10;52.27;;;;;;;;;;5133650;27;20442;-72
2021/12/28 13:53:58;;;;;;;72.03;52.93;;;;;;;;;;5123283;27;20462;-71
2021/12/28 13:56:33;;;;;;;75.30;49.53;;;;;;;;;;5124958;27;20458;-72
2021/12/28 13:59:01;;;;;;;82.23;55.27;;;;;;;;;;5127031;27;20488;-72
2021/12/28 14:01:38;;;;;;;76.77;50.17;;;;;;;;;;5120564;27;20489;-73
2021/12/28 14:04:12;;;;;;;71.50;51.07;;;;;;;;;;5118297;27;20542;-73
2021/12/28 14:06:41;;;;;;;78.83;53.60;;;;;;;;;;5138748;27;20954;-72
2021/12/28 14:09:10;;;;;;;78.33;51.97;;;;;;;;;;5126686;27;20446;-72
2021/12/28 14:11:44;;;;;;;73.63;56.97;;;;;;;;;;5144129;27;20457;-72
2021/12/28 14:14:30;;;;;;;82.07;59.63;;;;;;;;;;5125101;27;20457;-71
2021/12/28 14:17:00;;;;;;;78.93;53.63;;;;;;;;;;5125387;27;20556;-72
2021/12/28 14:19:34;;;;;;;92.27;64.13;;;;;;;;;;5137253;27;20457;-73
2021/12/28 14:22:30;;;;;;;72.70;52.37;;;;;;;;;;5139288;27;20467;-73
2021/12/28 14:25:26;;;;;;;78.47;54.03;;;;;;;;;;5124038;27;20537;-75
2021/12/28 14:28:07;;;;;;;72.57;52.00;;;;;;;;;;5121734;27;20709;-73
2021/12/28 14:30:36;;;;;;;69.53;51.80;;;;;;;;;;5121067;27;20542;-71
2021/12/28 14:33:03;;;;;;;71.83;52.77;;;;;;;;;;5119715;27;20497;-73
2021/12/28 14:35:36;;;;;;;71.90;54.20;;;;;;;;;;5127090;27;20461;-71
2021/12/28 14:38:11;;;;;;;73.00;54.00;;;;;;;;;;5119623;27;21230;-72
2021/12/28 14:40:42;;;;;;;61.40;47.57;;;;;;;;;;5120341;27;20658;-72
2021/12/28 14:43:19;;;;;;;64.60;49.97;;;;;;;;;;5130562;27;20465;-72
2021/12/28 14:45:53;;;;;;;69.50;54.10;;;;;;;;;;5136586;27;20457;-72
2021/12/28 14:48:24;;;;;;;64.07;49.90;;;;;;;;;;5132936;27;20450;-72
2021/12/28 14:51:08;;;;;;;59.33;51.60;;;;;;;;;;5134712;27;20769;-72
2021/12/28 14:53:36;;;;;;;64.57;47.37;;;;;;;;;;5133196;27;20503;-73